Blountstown, Florida
Current Conditions -  °F | °C
As of 9:53 AM on Tuesday 21 Oct 2014 (Local Time) from KMAI Reporting Station
Clear Clear  
Wind Chill: 22°   Ceiling: Unl
Heat Index: 22°   Visibility: 10mi
Dew Point: 14°   Wind: 8mph
Humidity: 61%   Direction: 20°NNE
Pressure: 30.02"   Gusts: NA
Location:  30.44°N, 85.05°W
Report Text: KMAI 211453Z AUTO 02007KT 10SM CLR 22/14 A3002 RMK AO2 SLP165 6//// T02170139 50006
Loading
Personal Weather Stations






























Interactive Weather Map
Tropical Storm Tracking
New forecast layout! Learn more

10-Day Weather Forecast

Advertisements
Track Severe Weather on mobile